Time;durP1;ratioP1;P1;durP2;ratioP2;P2;SDS_P1;SDS_P2;PMS_P1;PMS_P2;Temp;Humidity;BMP_temperature;BMP_pressure;BME280_temperature;BME280_humidity;BME280_pressure;Samples;Min_cycle;Max_cycle;Signal;HPM_P1;HPM_P2
2024/02/23 00:00:10;;;;;;;1.55;0.80;;;;;;;6.63;75.06;98380.84;2529145;28;20033;-81
2024/02/23 00:01:24;;;;;;;2.10;1.00;;;;;;;6.62;74.97;98387.78;2532491;28;20057;-81
2024/02/23 00:02:39;;;;;;;2.13;0.68;;;;;;;6.62;74.67;98390.34;2520742;28;20050;-81
2024/02/23 00:03:52;;;;;;;3.22;0.63;;;;;;;6.61;74.48;98385.22;2516325;28;20046;-80
2024/02/23 00:05:08;;;;;;;8.55;3.25;;;;;;;6.61;74.06;98385.22;2518857;28;20050;-81
2024/02/23 00:06:22;;;;;;;1.92;1.10;;;;;;;6.62;73.79;98384.34;2525755;28;20042;-81
2024/02/23 00:07:37;;;;;;;5.80;1.00;;;;;;;6.61;73.69;98391.25;2519591;28;20529;-80
2024/02/23 00:08:50;;;;;;;1.67;0.82;;;;;;;6.61;73.66;98398.16;2524011;28;20046;-81
2024/02/23 00:10:06;;;;;;;3.03;0.85;;;;;;;6.59;73.89;98406.00;2536095;28;20391;-79
2024/02/23 00:11:19;;;;;;;3.03;0.85;;;;;;;6.59;74.24;98399.97;2536976;28;20056;-81
2024/02/23 00:12:33;;;;;;;2.45;1.25;;;;;;;6.59;74.22;98395.63;2525540;28;20471;-80
2024/02/23 00:13:48;;;;;;;5.60;0.85;;;;;;;6.58;74.07;98395.66;2524056;28;20046;-80
2024/02/23 00:15:03;;;;;;;2.58;1.33;;;;;;;6.55;74.13;98405.22;2519260;28;20567;-80
2024/02/23 00:16:16;;;;;;;3.42;1.38;;;;;;;6.55;73.48;98402.63;2532870;28;20057;-80
2024/02/23 00:17:31;;;;;;;7.25;1.65;;;;;;;6.57;73.61;98414.72;2521897;28;20102;-79
2024/02/23 00:18:44;;;;;;;4.00;1.10;;;;;;;6.57;72.82;98397.41;2516796;28;20085;-79
2024/02/23 00:19:59;;;;;;;3.28;1.15;;;;;;;6.57;73.12;98401.75;2516339;28;20042;-79
2024/02/23 00:21:12;;;;;;;1.52;0.73;;;;;;;6.57;73.20;98412.97;2526382;28;20050;-79
2024/02/23 00:22:26;;;;;;;1.98;1.08;;;;;;;6.55;73.65;98413.00;2526538;28;20118;-81
2024/02/23 00:23:40;;;;;;;5.82;1.30;;;;;;;6.54;73.80;98418.25;2525563;28;20423;-80
2024/02/23 00:24:54;;;;;;;4.65;1.38;;;;;;;6.51;73.56;98421.78;2525168;28;20110;-81
2024/02/23 00:26:08;;;;;;;6.47;0.93;;;;;;;6.49;73.64;98423.53;2525485;28;20061;-81
2024/02/23 00:27:23;;;;;;;3.80;0.90;;;;;;;6.46;73.89;98428.81;2525594;28;20054;-81
2024/02/23 00:28:36;;;;;;;7.07;1.08;;;;;;;6.45;73.76;98421.91;2519921;28;20050;-81
2024/02/23 00:29:52;;;;;;;5.65;2.60;;;;;;;6.44;73.88;98432.34;2523057;28;20060;-79
2024/02/23 00:31:05;;;;;;;3.83;1.05;;;;;;;6.42;73.90;98436.72;2533566;28;20053;-80
2024/02/23 00:32:20;;;;;;;4.93;1.58;;;;;;;6.41;73.40;98428.09;2521188;28;20460;-80
2024/02/23 00:33:34;;;;;;;2.63;0.98;;;;;;;6.41;73.93;98428.09;2514523;28;20053;-80
2024/02/23 00:34:48;;;;;;;5.45;1.20;;;;;;;6.40;73.82;98430.72;2523064;28;20060;-80
2024/02/23 00:36:02;;;;;;;2.03;0.82;;;;;;;6.39;73.80;98440.22;2524693;28;20057;-79
2024/02/23 00:37:16;;;;;;;4.03;1.10;;;;;;;6.38;73.61;98427.34;2525536;28;20045;-78
2024/02/23 00:38:30;;;;;;;6.90;1.45;;;;;;;6.37;73.98;98425.63;2519624;28;20452;-80
2024/02/23 00:39:44;;;;;;;6.70;1.05;;;;;;;6.37;73.64;98426.47;2522370;28;20110;-81
2024/02/23 00:40:57;;;;;;;5.00;0.90;;;;;;;6.36;73.82;98429.97;2532992;28;20054;-79
2024/02/23 00:42:12;;;;;;;3.13;1.08;;;;;;;6.37;73.92;98421.28;2515520;28;20129;-81
2024/02/23 00:43:25;;;;;;;6.05;1.05;;;;;;;6.36;74.03;98424.78;2515346;28;20054;-78
2024/02/23 00:44:40;;;;;;;2.25;0.93;;;;;;;6.34;73.91;98421.38;2520996;28;20045;-79
2024/02/23 00:45:54;;;;;;;5.20;1.50;;;;;;;6.33;73.84;98433.47;2516927;28;20050;-80
2024/02/23 00:47:09;;;;;;;4.30;1.95;;;;;;;6.32;73.56;98438.69;2524478;28;20117;-81
2024/02/23 00:48:22;;;;;;;4.25;1.02;;;;;;;6.31;73.79;98443.03;2520749;28;20065;-80
2024/02/23 00:49:37;;;;;;;4.03;1.42;;;;;;;6.31;73.85;98449.97;2514741;28;20419;-79
2024/02/23 00:50:50;;;;;;;4.60;1.27;;;;;;;6.28;73.59;98444.88;2523054;28;20542;-79
2024/02/23 00:52:05;;;;;;;3.50;1.00;;;;;;;6.28;72.91;98444.88;2523129;28;20046;-81
2024/02/23 00:53:20;;;;;;;3.38;1.10;;;;;;;6.28;73.45;98463.00;2518670;28;20046;-80
2024/02/23 00:54:34;;;;;;;4.32;2.90;;;;;;;6.25;72.80;98463.94;2524876;28;20053;-80
2024/02/23 00:55:48;;;;;;;3.20;1.23;;;;;;;6.24;72.75;98456.19;2525084;28;20084;-79
2024/02/23 00:57:03;;;;;;;1.70;0.60;;;;;;;6.25;73.19;98457.91;2516448;28;20042;-81
2024/02/23 00:58:16;;;;;;;4.50;1.00;;;;;;;6.24;72.95;98456.19;2525372;28;21751;-80
2024/02/23 00:59:31;;;;;;;1.08;0.98;;;;;;;6.24;73.31;98463.97;2520637;28;20110;-80
2024/02/23 01:00:45;;;;;;;3.63;1.35;;;;;;;6.23;73.20;98465.69;2522220;28;20099;-79
2024/02/23 01:02:01;;;;;;;5.65;1.23;;;;;;;6.24;73.44;98464.81;2516968;28;20054;-81
2024/02/23 01:03:14;;;;;;;5.35;1.17;;;;;;;6.21;73.67;98461.44;2519950;28;20050;-81
2024/02/23 01:04:29;;;;;;;3.08;1.25;;;;;;;6.20;73.57;98460.59;2520903;28;20133;-82
2024/02/23 01:05:42;;;;;;;3.08;2.15;;;;;;;6.19;72.86;98458.03;2521621;28;20049;-80
2024/02/23 01:06:56;;;;;;;2.65;1.00;;;;;;;6.20;72.94;98458.03;2517875;28;20054;-81
2024/02/23 01:08:10;;;;;;;9.13;1.58;;;;;;;6.20;72.73;98472.72;2516550;28;20566;-80
2024/02/23 01:09:24;;;;;;;1.23;0.90;;;;;;;6.19;72.97;98458.88;2521620;28;20060;-80
2024/02/23 01:10:38;;;;;;;1.67;1.08;;;;;;;6.20;72.69;98454.59;2528815;28;20609;-80
2024/02/23 01:11:52;;;;;;;2.25;1.02;;;;;;;6.21;73.05;98459.72;2520691;28;20125;-81
2024/02/23 01:13:06;;;;;;;4.90;1.17;;;;;;;6.20;72.49;98452.00;2526627;28;20054;-81
2024/02/23 01:14:20;;;;;;;15.95;3.08;;;;;;;6.20;72.85;98457.19;2521149;28;20046;-81
2024/02/23 01:15:34;;;;;;;1.77;0.98;;;;;;;6.18;72.18;98457.19;2523512;28;20053;-81
2024/02/23 01:16:48;;;;;;;3.20;1.15;;;;;;;6.17;72.67;98468.47;2524157;28;20125;-79
2024/02/23 01:18:03;;;;;;;6.35;1.10;;;;;;;6.16;72.46;98468.50;2519289;28;20054;-81
2024/02/23 01:19:18;;;;;;;2.67;1.10;;;;;;;6.14;72.83;98471.09;2525661;28;20054;-81
2024/02/23 01:20:32;;;;;;;7.15;1.70;;;;;;;6.13;72.61;98453.03;2522418;28;20048;-80
2024/02/23 01:21:46;;;;;;;1.15;0.68;;;;;;;6.12;72.18;98462.56;2519885;28;20054;-80
2024/02/23 01:23:00;;;;;;;1.00;0.68;;;;;;;6.13;72.40;98469.41;2525510;28;20046;-80
2024/02/23 01:24:14;;;;;;;4.45;0.98;;;;;;;6.15;72.30;98482.34;2520114;28;20097;-80
2024/02/23 01:25:27;;;;;;;3.33;0.88;;;;;;;6.14;72.01;98485.81;2527625;28;20449;-79
2024/02/23 01:26:42;;;;;;;9.50;1.15;;;;;;;6.14;71.97;98481.47;2521689;28;20057;-80
2024/02/23 01:27:55;;;;;;;1.88;0.75;;;;;;;6.14;72.10;98483.22;2532131;28;20049;-80
2024/02/23 01:29:10;;;;;;;1.55;0.80;;;;;;;6.13;72.27;98473.75;2529072;28;20054;-80
2024/02/23 01:30:23;;;;;;;3.00;1.00;;;;;;;6.10;72.13;98477.28;2527729;28;20045;-80
2024/02/23 01:31:38;;;;;;;4.70;1.17;;;;;;;6.10;72.45;98485.03;2522026;28;20590;-81
2024/02/23 01:32:51;;;;;;;2.63;0.75;;;;;;;6.09;72.77;98479.03;2525191;28;20050;-78
2024/02/23 01:34:07;;;;;;;7.60;2.42;;;;;;;6.09;72.73;98484.19;2519233;28;20106;-79
2024/02/23 01:35:20;;;;;;;5.53;1.13;;;;;;;6.08;72.74;98479.88;2525546;28;20042;-80
2024/02/23 01:36:36;;;;;;;5.65;1.35;;;;;;;6.08;72.74;98487.66;2522988;28;20045;-80
2024/02/23 01:37:49;;;;;;;2.78;0.80;;;;;;;6.08;72.77;98500.59;2521546;28;20069;-79
2024/02/23 01:39:04;;;;;;;5.57;0.77;;;;;;;6.07;72.89;98498.91;2535650;28;20103;-81
2024/02/23 01:40:18;;;;;;;2.83;0.70;;;;;;;6.05;72.60;98505.88;2525000;28;20057;-79
2024/02/23 01:41:33;;;;;;;3.45;0.50;;;;;;;6.06;72.37;98480.81;2519637;28;20056;-81
2024/02/23 01:42:46;;;;;;;0.93;0.52;;;;;;;6.04;72.32;98509.34;2534547;28;20056;-79
2024/02/23 01:44:00;;;;;;;2.92;1.02;;;;;;;6.04;71.72;98506.78;2528855;28;20045;-79
2024/02/23 01:45:14;;;;;;;2.13;0.90;;;;;;;6.05;72.09;98505.88;2517530;28;20058;-80
2024/02/23 01:46:28;;;;;;;7.38;1.27;;;;;;;6.05;72.34;98507.59;2521863;28;20046;-80
2024/02/23 01:47:42;;;;;;;1.88;0.75;;;;;;;6.03;72.12;98515.41;2527070;28;20576;-80
2024/02/23 01:48:57;;;;;;;3.70;1.55;;;;;;;6.04;72.70;98517.13;2519969;28;20060;-80
2024/02/23 01:50:12;;;;;;;2.45;0.98;;;;;;;6.05;71.92;98513.63;2528293;28;20160;-81
2024/02/23 01:51:27;;;;;;;3.00;0.98;;;;;;;6.07;72.17;98513.59;2523683;28;20057;-80
2024/02/23 01:52:40;;;;;;;1.70;1.08;;;;;;;6.08;72.08;98512.72;2517615;28;20038;-80
2024/02/23 01:53:55;;;;;;;1.45;0.60;;;;;;;6.09;71.06;98520.44;2532167;28;20045;-80
2024/02/23 01:55:08;;;;;;;2.20;1.17;;;;;;;6.10;71.38;98519.56;2529887;28;20050;-80
2024/02/23 01:56:23;;;;;;;0.65;0.60;;;;;;;6.14;71.52;98519.47;2535217;28;20101;-82
2024/02/23 01:57:36;;;;;;;6.03;0.73;;;;;;;6.14;71.18;98527.25;2528616;28;20053;-81
2024/02/23 01:58:50;;;;;;;3.80;1.05;;;;;;;6.16;70.94;98530.66;2528381;28;20109;-81
2024/02/23 02:00:06;;;;;;;9.35;1.60;;;;;;;6.17;71.07;98532.34;2536197;28;20042;-80
2024/02/23 02:01:20;;;;;;;3.30;0.70;;;;;;;6.18;70.97;98519.38;2527400;28;20131;-81
2024/02/23 02:02:34;;;;;;;1.50;0.73;;;;;;;6.18;71.13;98523.69;2528675;28;20053;-81
2024/02/23 02:03:48;;;;;;;2.05;0.65;;;;;;;6.17;71.24;98515.09;2528222;28;20105;-81
2024/02/23 02:05:03;;;;;;;3.45;1.00;;;;;;;6.19;71.33;98522.78;2520312;28;20046;-82
2024/02/23 02:06:19;;;;;;;6.95;1.08;;;;;;;6.18;71.33;98521.94;2536357;28;20057;-81
2024/02/23 02:07:32;;;;;;;1.95;1.15;;;;;;;6.16;71.35;98509.94;2524309;28;20054;-81
2024/02/23 02:08:47;;;;;;;2.40;0.68;;;;;;;6.17;71.78;98521.97;2518308;28;20110;-79
2024/02/23 02:10:01;;;;;;;6.03;2.42;;;;;;;6.16;71.48;98510.78;2526728;28;20049;-81
2024/02/23 02:11:15;;;;;;;5.15;0.80;;;;;;;6.17;71.13;98517.66;2528491;28;20046;-82
2024/02/23 02:12:29;;;;;;;2.15;1.08;;;;;;;6.17;71.37;98525.44;2523929;28;20073;-82
2024/02/23 02:13:43;;;;;;;3.83;1.23;;;;;;;6.18;71.13;98526.28;2524089;28;20053;-80
2024/02/23 02:14:57;;;;;;;2.40;0.93;;;;;;;6.17;71.15;98522.84;2520020;28;20443;-80
2024/02/23 02:16:12;;;;;;;2.22;0.57;;;;;;;6.17;71.05;98524.56;2525690;28;20097;-81
2024/02/23 02:17:25;;;;;;;1.50;1.17;;;;;;;6.17;71.67;98527.16;2518464;28;20042;-80
2024/02/23 02:18:40;;;;;;;1.23;0.60;;;;;;;6.16;71.51;98541.84;2523732;28;20045;-80
2024/02/23 02:19:53;;;;;;;4.60;1.77;;;;;;;6.16;71.54;98536.66;2527068;28;20054;-81
2024/02/23 02:21:08;;;;;;;5.22;0.85;;;;;;;6.17;72.12;98535.81;2527600;28;20049;-79
2024/02/23 02:22:23;;;;;;;3.28;0.77;;;;;;;6.16;71.65;98528.91;2520817;28;20056;-79
2024/02/23 02:23:38;;;;;;;1.45;0.75;;;;;;;6.18;71.83;98531.47;2522745;28;20504;-81
2024/02/23 02:24:51;;;;;;;4.15;0.82;;;;;;;6.18;71.73;98534.06;2517735;28;20141;-80
2024/02/23 02:26:05;;;;;;;3.15;1.08;;;;;;;6.18;71.58;98526.28;2526155;28;20051;-80
2024/02/23 02:27:19;;;;;;;8.98;1.38;;;;;;;6.19;71.89;98530.56;2525860;28;20050;-81
2024/02/23 02:28:34;;;;;;;2.13;0.73;;;;;;;6.20;72.00;98542.66;2517345;28;20045;-81
2024/02/23 02:29:50;;;;;;;1.30;0.70;;;;;;;6.18;71.94;98542.66;2518164;28;20054;-81
2024/02/23 02:31:04;;;;;;;2.70;0.95;;;;;;;6.18;71.96;98528.88;2517954;28;20408;-81
2024/02/23 02:32:18;;;;;;;6.53;0.90;;;;;;;6.17;71.83;98529.75;2520391;28;20053;-80
2024/02/23 02:33:32;;;;;;;5.20;0.68;;;;;;;6.16;71.91;98535.81;2523630;28;20121;-79
2024/02/23 02:34:46;;;;;;;3.15;0.63;;;;;;;6.15;71.87;98534.97;2518722;28;20058;-81
2024/02/23 02:36:00;;;;;;;3.97;0.70;;;;;;;6.15;71.29;98545.34;2524747;28;20069;-80
2024/02/23 02:37:13;;;;;;;1.98;1.30;;;;;;;6.15;71.28;98531.56;2519662;28;20054;-80
2024/02/23 02:38:29;;;;;;;2.08;0.77;;;;;;;6.15;71.27;98534.97;2523785;28;20134;-81
2024/02/23 02:39:43;;;;;;;4.50;1.15;;;;;;;6.15;71.72;98531.56;2517387;28;20054;-82
2024/02/23 02:40:59;;;;;;;1.02;0.93;;;;;;;6.15;71.76;98534.13;2532537;28;20534;-80
2024/02/23 02:42:13;;;;;;;1.45;0.73;;;;;;;6.15;71.79;98536.72;2535996;28;20077;-79
2024/02/23 02:43:27;;;;;;;2.33;0.70;;;;;;;6.14;71.79;98537.59;2525716;28;20054;-80
2024/02/23 02:44:40;;;;;;;1.33;0.68;;;;;;;6.13;72.01;98546.28;2522197;28;20061;-80
2024/02/23 02:45:55;;;;;;;0.90;0.60;;;;;;;6.12;72.52;98535.06;2515576;28;20050;-80
2024/02/23 02:47:08;;;;;;;4.43;0.60;;;;;;;6.13;72.41;98535.91;2518541;28;20431;-81
2024/02/23 02:48:23;;;;;;;1.27;0.73;;;;;;;6.13;72.74;98544.53;2524059;28;20060;-80
2024/02/23 02:49:36;;;;;;;0.85;0.60;;;;;;;6.14;72.68;98547.97;2522041;28;20061;-79
2024/02/23 02:50:51;;;;;;;6.75;1.00;;;;;;;6.14;72.50;98550.53;2519372;28;20050;-80
2024/02/23 02:52:04;;;;;;;1.27;0.60;;;;;;;6.13;72.29;98546.28;2532639;28;20041;-80
2024/02/23 02:53:19;;;;;;;2.67;1.00;;;;;;;6.13;72.14;98538.50;2519571;28;20393;-81
2024/02/23 02:54:34;;;;;;;1.13;0.82;;;;;;;6.13;71.70;98536.75;2522763;28;20047;-81
2024/02/23 02:55:48;;;;;;;1.80;0.60;;;;;;;6.11;72.02;98543.69;2522610;28;20057;-79
2024/02/23 02:57:02;;;;;;;3.85;0.82;;;;;;;6.13;71.80;98546.28;2526800;28;20061;-81
2024/02/23 02:58:16;;;;;;;2.38;0.70;;;;;;;6.14;72.03;98553.13;2518278;28;20050;-81
2024/02/23 02:59:33;;;;;;;4.63;0.57;;;;;;;6.14;71.83;98542.78;2522265;28;20053;-81
2024/02/23 03:00:48;;;;;;;1.95;0.70;;;;;;;6.13;71.69;98547.13;2522921;28;20411;-81
2024/02/23 03:02:01;;;;;;;2.70;0.70;;;;;;;6.14;70.81;98548.81;2518623;28;20057;-80
2024/02/23 03:03:16;;;;;;;1.48;0.73;;;;;;;6.15;70.85;98544.50;2517033;28;20353;-81
2024/02/23 03:04:29;;;;;;;1.38;0.68;;;;;;;6.15;70.83;98550.53;2518521;28;20053;-80
2024/02/23 03:05:44;;;;;;;2.08;0.60;;;;;;;6.14;71.31;98546.22;2525350;28;20046;-80
2024/02/23 03:06:57;;;;;;;9.20;1.70;;;;;;;6.14;70.75;98558.31;2522802;28;20408;-80
2024/02/23 03:08:11;;;;;;;3.17;0.95;;;;;;;6.14;70.04;98553.97;2527365;28;20060;-79
2024/02/23 03:09:25;;;;;;;5.93;1.67;;;;;;;6.15;69.98;98555.69;2519259;28;20046;-80
2024/02/23 03:10:41;;;;;;;1.33;0.52;;;;;;;6.14;69.96;98553.13;2518942;28;20151;-81
2024/02/23 03:11:54;;;;;;;1.88;1.45;;;;;;;6.14;70.36;98568.69;2518481;28;21019;-81
2024/02/23 03:13:09;;;;;;;2.58;0.93;;;;;;;6.11;70.40;98554.06;2518741;28;20110;-81
2024/02/23 03:14:22;;;;;;;3.15;1.45;;;;;;;6.10;69.27;98553.22;2525219;28;20046;-81
2024/02/23 03:15:36;;;;;;;2.05;0.65;;;;;;;6.09;69.33;98559.28;2522259;28;20131;-81
2024/02/23 03:16:50;;;;;;;2.05;1.17;;;;;;;6.06;69.69;98532.59;2528067;28;20050;-81
2024/02/23 03:18:04;;;;;;;1.70;1.00;;;;;;;6.04;70.01;98536.97;2520745;28;20056;-80
2024/02/23 03:19:22;;;;;;;2.72;0.70;;;;;;;6.01;69.74;98537.03;2520209;28;20046;-80
2024/02/23 03:20:36;;;;;;;3.13;1.00;;;;;;;5.97;68.77;98533.69;2527175;28;20041;-81
2024/02/23 03:21:50;;;;;;;4.32;0.90;;;;;;;5.95;68.70;98553.56;2527385;28;20054;-78
2024/02/23 03:23:04;;;;;;;2.65;0.60;;;;;;;5.94;68.84;98540.66;2527365;28;20213;-80
2024/02/23 03:24:18;;;;;;;1.05;0.60;;;;;;;5.90;69.26;98543.28;2524903;28;20042;-80
2024/02/23 03:25:32;;;;;;;2.55;0.70;;;;;;;5.89;68.54;98549.38;2517353;28;20050;-80
2024/02/23 03:26:47;;;;;;;9.43;1.52;;;;;;;5.88;69.10;98554.56;2523172;28;20066;-81
2024/02/23 03:28:01;;;;;;;2.17;0.98;;;;;;;5.86;68.80;98548.56;2519759;28;20559;-80
2024/02/23 03:29:15;;;;;;;1.55;0.73;;;;;;;5.85;68.94;98539.13;2526983;28;20050;-79
2024/02/23 03:30:30;;;;;;;2.70;0.77;;;;;;;5.85;68.42;98541.72;2527304;28;20045;-81
2024/02/23 03:31:43;;;;;;;1.88;1.08;;;;;;;5.86;68.28;98533.03;2521142;28;20073;-80
2024/02/23 03:32:58;;;;;;;7.00;0.90;;;;;;;5.87;68.08;98545.13;2526282;28;20466;-80
2024/02/23 03:34:13;;;;;;;2.78;1.17;;;;;;;5.88;68.51;98541.63;2519235;28;20054;-80
2024/02/23 03:35:27;;;;;;;2.90;0.60;;;;;;;5.90;68.92;98539.84;2526731;28;20046;-79
2024/02/23 03:36:40;;;;;;;10.30;0.95;;;;;;;5.89;69.51;98539.00;2527238;28;20042;-80
2024/02/23 03:37:55;;;;;;;1.63;0.77;;;;;;;5.90;69.68;98545.03;2526283;28;20056;-79
2024/02/23 03:39:08;;;;;;;4.03;1.05;;;;;;;5.90;70.06;98539.84;2526749;28;20053;-80
2024/02/23 03:40:23;;;;;;;6.70;0.82;;;;;;;5.91;69.72;98546.72;2516334;28;20108;-79
2024/02/23 03:41:36;;;;;;;4.10;0.93;;;;;;;5.90;70.14;98535.53;2516947;28;20057;-79
2024/02/23 03:42:52;;;;;;;3.80;1.25;;;;;;;5.90;69.82;98534.69;2522285;28;20129;-80
2024/02/23 03:44:05;;;;;;;2.70;0.80;;;;;;;5.90;69.90;98545.88;2534415;28;20045;-80
2024/02/23 03:45:20;;;;;;;3.67;1.25;;;;;;;5.92;69.78;98537.25;2526969;28;20692;-79
2024/02/23 03:46:34;;;;;;;1.08;0.70;;;;;;;5.90;70.04;98545.88;2530844;28;20049;-81
2024/02/23 03:47:48;;;;;;;1.65;0.82;;;;;;;5.92;70.10;98547.59;2530200;28;20565;-80
2024/02/23 03:49:02;;;;;;;7.82;1.10;;;;;;;5.90;70.09;98543.28;2526311;28;20050;-79
2024/02/23 03:50:16;;;;;;;4.78;1.00;;;;;;;5.92;70.45;98542.44;2526907;28;20052;-80
2024/02/23 03:51:32;;;;;;;3.67;0.90;;;;;;;5.93;70.26;98555.31;2529832;28;20045;-79
2024/02/23 03:52:46;;;;;;;2.92;1.00;;;;;;;5.92;69.50;98553.63;2530892;28;20053;-79
2024/02/23 03:54:00;;;;;;;3.75;1.30;;;;;;;5.92;69.68;98547.59;2526654;28;20425;-79
2024/02/23 03:55:14;;;;;;;2.13;0.90;;;;;;;5.92;69.91;98552.78;2534442;28;20136;-80
2024/02/23 03:56:28;;;;;;;3.60;0.90;;;;;;;5.92;70.17;98547.59;2528379;28;20045;-79
2024/02/23 03:57:42;;;;;;;2.08;1.00;;;;;;;5.91;70.14;98564.84;2527199;28;20058;-80
2024/02/23 03:58:57;;;;;;;1.55;0.68;;;;;;;5.92;70.12;98563.13;2528333;28;20060;-80
2024/02/23 04:00:13;;;;;;;2.15;1.52;;;;;;;5.91;70.74;98551.91;2525960;28;20045;-80
2024/02/23 04:01:26;;;;;;;1.40;0.63;;;;;;;5.90;70.82;98564.00;2522512;28;20115;-79
2024/02/23 04:02:41;;;;;;;4.78;0.93;;;;;;;5.90;70.75;98560.56;2532640;28;20112;-79
2024/02/23 04:03:54;;;;;;;4.82;1.00;;;;;;;5.89;70.72;98567.50;2519871;28;20054;-80
2024/02/23 04:05:09;;;;;;;5.03;1.20;;;;;;;5.89;70.58;98571.81;2516954;28;20052;-79
2024/02/23 04:06:22;;;;;;;5.57;1.02;;;;;;;5.88;70.52;98572.69;2524644;28;20050;-80
2024/02/23 04:07:37;;;;;;;3.13;1.35;;;;;;;5.88;70.58;98577.88;2520422;28;20045;-80
2024/02/23 04:08:50;;;;;;;2.60;0.77;;;;;;;5.87;70.44;98576.19;2520801;28;20058;-80
2024/02/23 04:10:05;;;;;;;1.63;1.13;;;;;;;5.86;70.25;98580.50;2517019;28;20514;-79
2024/02/23 04:11:19;;;;;;;1.27;0.90;;;;;;;5.85;70.04;98577.94;2534939;28;20057;-80
2024/02/23 04:12:34;;;;;;;9.23;1.70;;;;;;;5.85;70.28;98578.78;2525855;28;20044;-81
2024/02/23 04:13:47;;;;;;;2.92;1.15;;;;;;;5.84;69.98;98581.44;2527512;28;20054;-81
2024/02/23 04:15:03;;;;;;;2.38;0.90;;;;;;;5.83;70.34;98577.13;2527379;28;20121;-79
2024/02/23 04:16:17;;;;;;;5.88;1.05;;;;;;;5.82;70.43;98578.03;2534594;28;20045;-81
2024/02/23 04:17:31;;;;;;;5.18;1.08;;;;;;;5.81;70.56;98576.34;2523011;28;20052;-80
2024/02/23 04:18:44;;;;;;;5.57;2.40;;;;;;;5.80;70.56;98579.78;2531831;28;20050;-79
2024/02/23 04:20:00;;;;;;;3.38;0.98;;;;;;;5.79;70.56;98585.88;2517382;28;20053;-80
2024/02/23 04:21:15;;;;;;;2.50;1.00;;;;;;;5.77;70.54;98574.69;2524670;28;20061;-79
2024/02/23 04:22:29;;;;;;;3.95;0.93;;;;;;;5.76;70.94;98579.03;2519397;28;20053;-79
2024/02/23 04:23:43;;;;;;;3.08;0.80;;;;;;;5.76;71.04;98575.59;2526237;28;20463;-79
2024/02/23 04:24:57;;;;;;;3.85;1.10;;;;;;;5.75;70.40;98574.69;2518820;28;20129;-79
2024/02/23 04:26:11;;;;;;;7.30;1.50;;;;;;;5.76;70.73;98585.94;2517392;28;20050;-79
2024/02/23 04:27:25;;;;;;;2.38;0.90;;;;;;;5.74;70.62;98577.34;2533339;28;20570;-80
2024/02/23 04:28:39;;;;;;;5.05;1.42;;;;;;;5.75;70.96;98586.81;2522295;28;20082;-81
2024/02/23 04:29:53;;;;;;;1.25;0.70;;;;;;;5.74;70.97;98588.53;2516631;28;20495;-79
2024/02/23 04:31:09;;;;;;;1.65;0.98;;;;;;;5.74;71.12;98585.97;2516904;28;20050;-80
2024/02/23 04:32:23;;;;;;;3.70;1.15;;;;;;;5.73;71.12;98576.50;2515766;28;20073;-80
2024/02/23 04:33:37;;;;;;;1.35;0.73;;;;;;;5.74;70.55;98580.78;2516647;28;20051;-79
2024/02/23 04:34:51;;;;;;;1.95;1.08;;;;;;;5.74;69.91;98574.75;2540521;22;20057;-85
2024/02/23 04:36:07;;;;;;;3.78;1.17;;;;;;;5.74;70.04;98570.44;2522744;28;20057;-84
2024/02/23 04:37:21;;;;;;;2.63;1.10;;;;;;;5.74;69.72;98574.75;2524243;28;20137;-83
2024/02/23 04:38:35;;;;;;;1.17;0.77;;;;;;;5.73;69.98;98573.03;2524149;28;20050;-82
2024/02/23 04:39:49;;;;;;;3.08;1.23;;;;;;;5.71;69.58;98567.06;2517676;28;20161;-82
2024/02/23 04:41:04;;;;;;;5.80;1.50;;;;;;;5.70;69.79;98558.44;2521181;28;20046;-81
2024/02/23 04:42:17;;;;;;;5.45;1.13;;;;;;;5.68;69.25;98568.84;2523151;28;20054;-83
2024/02/23 04:43:32;;;;;;;2.17;0.98;;;;;;;5.67;69.53;98559.34;2514972;28;20125;-81
2024/02/23 04:44:46;;;;;;;1.65;1.17;;;;;;;5.67;69.51;98553.31;2520659;28;20057;-84
2024/02/23 04:46:00;;;;;;;4.40;1.20;;;;;;;5.66;69.34;98568.00;2519335;28;20056;-82
2024/02/23 04:47:15;;;;;;;4.03;1.05;;;;;;;5.66;69.59;98562.84;2516511;28;20057;-83
2024/02/23 04:48:30;;;;;;;6.95;1.20;;;;;;;5.66;69.44;98560.25;2525704;28;20045;-82
2024/02/23 04:49:44;;;;;;;3.00;0.80;;;;;;;5.64;69.30;98564.59;2521447;28;20437;-83
2024/02/23 04:50:58;;;;;;;3.28;0.85;;;;;;;5.65;69.50;98576.66;2516369;28;20058;-82
2024/02/23 04:52:12;;;;;;;2.85;0.98;;;;;;;5.64;69.59;98574.94;2515392;28;20046;-84
2024/02/23 04:53:26;;;;;;;3.63;0.88;;;;;;;5.64;69.97;98569.78;2518606;28;20098;-83
2024/02/23 04:54:40;;;;;;;1.55;1.00;;;;;;;5.64;69.81;98569.78;2521865;28;20384;-83
2024/02/23 04:55:54;;;;;;;1.95;0.90;;;;;;;5.64;70.02;98562.00;2515910;28;20050;-82
2024/02/23 04:57:07;;;;;;;6.85;1.55;;;;;;;5.64;70.04;98556.84;2515994;28;20054;-82
2024/02/23 04:58:22;;;;;;;2.95;1.15;;;;;;;5.63;70.19;98565.50;2524345;28;20053;-82
2024/02/23 04:59:35;;;;;;;6.07;2.47;;;;;;;5.63;70.10;98555.16;2515568;28;20404;-82
2024/02/23 05:00:50;;;;;;;3.33;0.95;;;;;;;5.62;70.05;98557.75;2521458;28;20053;-82
2024/02/23 05:02:04;;;;;;;2.63;1.13;;;;;;;5.62;70.13;98553.41;2525417;28;20054;-84
2024/02/23 05:03:19;;;;;;;4.85;1.27;;;;;;;5.61;70.33;98562.09;2517636;28;20089;-83
2024/02/23 05:04:33;;;;;;;3.00;1.00;;;;;;;5.61;70.16;98556.91;2522361;28;20043;-82
2024/02/23 05:05:48;;;;;;;3.10;1.17;;;;;;;5.61;69.97;98564.66;2515744;28;20474;-83
2024/02/23 05:07:01;;;;;;;2.08;0.50;;;;;;;5.61;70.18;98559.50;2515958;28;20050;-82
2024/02/23 05:08:16;;;;;;;2.40;1.00;;;;;;;5.61;69.59;98575.03;2515457;28;20515;-82
2024/02/23 05:09:29;;;;;;;3.17;1.77;;;;;;;5.60;69.46;98564.69;2515598;28;20050;-82
2024/02/23 05:10:43;;;;;;;2.60;1.00;;;;;;;5.58;69.57;98566.50;2515471;28;20136;-82
2024/02/23 05:11:57;;;;;;;3.88;0.90;;;;;;;5.58;69.51;98559.56;2515347;28;20042;-82
2024/02/23 05:13:11;;;;;;;2.42;0.82;;;;;;;5.60;69.47;98564.69;2515938;28;20136;-84
2024/02/23 05:14:25;;;;;;;5.00;0.70;;;;;;;5.58;69.49;98564.75;2516287;28;20050;-82
2024/02/23 05:15:40;;;;;;;2.88;1.08;;;;;;;5.57;69.41;98555.25;2516153;28;20098;-82
2024/02/23 05:16:53;;;;;;;0.93;0.80;;;;;;;5.56;69.77;98553.56;2524009;28;20039;-85
2024/02/23 05:18:08;;;;;;;0.77;0.77;;;;;;;5.56;69.49;98553.56;2518643;28;20133;-82
2024/02/23 05:19:22;;;;;;;2.92;0.98;;;;;;;5.57;69.76;98550.09;2522568;28;20056;-83
2024/02/23 05:20:37;;;;;;;1.52;0.82;;;;;;;5.57;69.65;98557.84;2517589;28;20463;-82
2024/02/23 05:21:50;;;;;;;7.75;1.13;;;;;;;5.57;69.57;98551.81;2519197;28;20061;-82
2024/02/23 05:23:05;;;;;;;2.85;1.33;;;;;;;5.54;69.57;98557.06;2521768;28;20046;-82
2024/02/23 05:24:18;;;;;;;8.30;0.90;;;;;;;5.51;69.56;98552.81;2514820;28;20038;-82
2024/02/23 05:25:33;;;;;;;2.28;1.25;;;;;;;5.47;69.71;98559.81;2517614;28;20052;-83
2024/02/23 05:26:46;;;;;;;1.40;1.13;;;;;;;5.44;69.78;98559.84;2523165;28;20506;-83
2024/02/23 05:28:01;;;;;;;1.75;0.90;;;;;;;5.41;69.81;98557.34;2519581;28;20129;-82
2024/02/23 05:29:17;;;;;;;7.50;1.25;;;;;;;5.39;70.24;98564.25;2516532;28;20065;-84
2024/02/23 05:30:32;;;;;;;1.58;0.55;;;;;;;5.36;69.82;98556.56;2518772;28;20129;-82
2024/02/23 05:31:46;;;;;;;4.35;1.13;;;;;;;5.35;69.84;98557.47;2520830;28;20076;-82
2024/02/23 05:33:03;;;;;;;1.38;0.70;;;;;;;5.32;70.19;98551.50;2522686;28;20061;-83
2024/02/23 05:34:16;;;;;;;3.10;0.70;;;;;;;5.31;69.07;98563.59;2525351;28;20107;-84
2024/02/23 05:35:32;;;;;;;1.13;1.00;;;;;;;5.32;69.48;98560.13;2518263;28;20475;-83
2024/02/23 05:36:46;;;;;;;2.55;1.10;;;;;;;5.31;69.48;98566.16;2520383;28;20050;-82
2024/02/23 05:38:00;;;;;;;6.40;0.85;;;;;;;5.31;69.07;98560.16;2522748;28;20149;-82
2024/02/23 05:39:15;;;;;;;2.22;1.08;;;;;;;5.30;69.03;98574.81;2517891;28;20058;-82
2024/02/23 05:40:29;;;;;;;5.05;1.35;;;;;;;5.28;69.24;98573.16;2523824;28;20041;-83
2024/02/23 05:41:43;;;;;;;6.85;1.73;;;;;;;5.25;69.34;98574.91;2520290;28;20054;-82
2024/02/23 05:42:58;;;;;;;0.68;0.50;;;;;;;5.22;68.98;98572.41;2525563;28;20124;-83
2024/02/23 05:44:13;;;;;;;2.05;0.80;;;;;;;5.19;68.74;98582.81;2517566;28;20407;-82
2024/02/23 05:45:27;;;;;;;4.43;1.63;;;;;;;5.14;69.16;98571.69;2508086;28;20051;-82
2024/02/23 05:46:42;;;;;;;2.30;0.52;;;;;;;5.11;69.38;98570.88;2516090;28;20053;-84
2024/02/23 05:47:57;;;;;;;3.67;0.93;;;;;;;5.09;69.42;98585.59;2520884;28;20046;-83
2024/02/23 05:49:10;;;;;;;1.77;1.05;;;;;;;5.05;69.54;98577.03;2518082;28;20057;-83
2024/02/23 05:50:25;;;;;;;2.65;1.00;;;;;;;5.02;69.33;98583.13;2515579;28;20070;-82
2024/02/23 05:51:40;;;;;;;5.22;0.98;;;;;;;5.00;68.50;98566.78;2515009;28;20053;-83
2024/02/23 05:52:54;;;;;;;2.85;0.80;;;;;;;5.00;69.13;98563.34;2521673;28;20133;-82